Time;durP1;ratioP1;P1;durP2;ratioP2;P2;SDS_P1;SDS_P2;PMS_P1;PMS_P2;Temp;Humidity;BMP_temperature;BMP_pressure;BME280_temperature;BME280_humidity;BME280_pressure;Samples;Min_cycle;Max_cycle;Signal;HPM_P1;HPM_P2
2022/02/22 00:00:52;;;;;;;7.57;2.35;;;;;;;;;;5011006;28;20033;-75
2022/02/22 00:03:18;;;;;;;5.35;1.95;;;;;;;;;;5011855;28;20482;-75
2022/02/22 00:05:44;;;;;;;4.53;1.77;;;;;;;;;;5010644;28;20124;-75
2022/02/22 00:08:10;;;;;;;7.47;2.47;;;;;;;;;;5011869;28;20025;-75
2022/02/22 00:10:36;;;;;;;6.70;2.38;;;;;;;;;;5010585;28;20084;-75
2022/02/22 00:13:02;;;;;;;9.55;2.22;;;;;;;;;;5011396;28;20029;-75
2022/02/22 00:15:28;;;;;;;14.32;3.03;;;;;;;;;;5011829;28;20473;-75
2022/02/22 00:17:54;;;;;;;9.38;2.08;;;;;;;;;;5011911;28;20037;-75
2022/02/22 00:20:20;;;;;;;10.23;2.90;;;;;;;;;;5012029;28;20392;-76
2022/02/22 00:22:46;;;;;;;7.65;2.63;;;;;;;;;;5011799;28;20030;-75
2022/02/22 00:25:13;;;;;;;9.05;2.50;;;;;;;;;;5011744;28;20068;-75
2022/02/22 00:27:40;;;;;;;8.32;2.83;;;;;;;;;;5011719;28;20018;-75
2022/02/22 00:30:06;;;;;;;8.65;2.78;;;;;;;;;;5011708;28;20505;-75
2022/02/22 00:32:32;;;;;;;8.27;2.53;;;;;;;;;;5010376;28;20133;-76
2022/02/22 00:34:58;;;;;;;9.13;2.90;;;;;;;;;;5011582;28;20064;-75
2022/02/22 00:37:25;;;;;;;7.95;2.72;;;;;;;;;;5011992;28;20109;-76
2022/02/22 00:39:51;;;;;;;9.75;2.40;;;;;;;;;;5011548;28;20041;-75
2022/02/22 00:42:17;;;;;;;11.80;2.50;;;;;;;;;;5014098;28;20030;-75
2022/02/22 00:44:43;;;;;;;9.75;2.58;;;;;;;;;;5014136;28;20041;-77
2022/02/22 00:47:10;;;;;;;6.47;2.38;;;;;;;;;;5014199;28;20026;-76
2022/02/22 00:49:36;;;;;;;8.48;2.38;;;;;;;;;;5014089;28;20033;-75
2022/02/22 00:52:02;;;;;;;8.52;2.53;;;;;;;;;;5015278;28;20014;-75
2022/02/22 00:54:28;;;;;;;9.52;3.40;;;;;;;;;;5013791;28;20496;-75
2022/02/22 00:56:54;;;;;;;7.70;2.65;;;;;;;;;;5015408;28;20393;-74
2022/02/22 00:59:20;;;;;;;9.23;2.47;;;;;;;;;;5013856;28;20045;-75
2022/02/22 01:01:46;;;;;;;9.40;3.03;;;;;;;;;;5013812;28;20433;-76
2022/02/22 01:04:12;;;;;;;8.10;2.30;;;;;;;;;;5014373;28;20026;-75
2022/02/22 01:06:38;;;;;;;8.35;2.58;;;;;;;;;;5013179;28;20026;-75
2022/02/22 01:09:06;;;;;;;8.23;2.83;;;;;;;;;;5014872;28;20478;-74
2022/02/22 01:11:32;;;;;;;8.85;2.58;;;;;;;;;;5013519;28;20033;-76
2022/02/22 01:13:58;;;;;;;11.93;2.97;;;;;;;;;;5014426;28;20406;-75
2022/02/22 01:16:24;;;;;;;9.13;3.58;;;;;;;;;;5013879;28;20517;-76
2022/02/22 01:18:50;;;;;;;8.52;2.55;;;;;;;;;;5014788;28;20040;-75
2022/02/22 01:21:16;;;;;;;10.18;2.95;;;;;;;;;;5014572;28;20045;-76
2022/02/22 01:23:42;;;;;;;6.20;2.03;;;;;;;;;;5014528;28;20072;-75
2022/02/22 01:26:08;;;;;;;8.57;2.50;;;;;;;;;;5014689;28;20444;-76
2022/02/22 01:28:34;;;;;;;8.73;2.80;;;;;;;;;;5013235;28;20116;-76
2022/02/22 01:31:00;;;;;;;8.93;2.53;;;;;;;;;;5014555;28;20032;-75
2022/02/22 01:33:26;;;;;;;9.50;2.45;;;;;;;;;;5014782;28;20044;-74
2022/02/22 01:35:52;;;;;;;9.48;2.70;;;;;;;;;;5014631;28;20465;-74
2022/02/22 01:38:18;;;;;;;7.43;2.63;;;;;;;;;;5014380;28;20061;-75
2022/02/22 01:40:44;;;;;;;10.10;2.90;;;;;;;;;;5014399;28;20054;-75
2022/02/22 01:43:10;;;;;;;8.70;2.35;;;;;;;;;;5013045;28;20065;-75
2022/02/22 01:45:37;;;;;;;12.07;3.17;;;;;;;;;;5014336;28;20029;-75
2022/02/22 01:48:03;;;;;;;8.60;2.67;;;;;;;;;;5012967;28;20449;-75
2022/02/22 01:50:29;;;;;;;7.35;2.40;;;;;;;;;;5014258;28;20035;-75
2022/02/22 01:52:55;;;;;;;9.05;2.42;;;;;;;;;;5013130;28;20026;-75
2022/02/22 01:55:22;;;;;;;8.10;2.55;;;;;;;;;;5014072;28;20028;-75
2022/02/22 01:57:48;;;;;;;7.47;2.13;;;;;;;;;;5014074;28;20034;-76
2022/02/22 02:00:15;;;;;;;11.68;2.60;;;;;;;;;;5012741;28;20535;-75
2022/02/22 02:02:41;;;;;;;8.80;2.53;;;;;;;;;;5014067;28;20026;-75
2022/02/22 02:05:07;;;;;;;8.85;2.50;;;;;;;;;;5013812;28;20030;-75
2022/02/22 02:07:34;;;;;;;9.05;2.22;;;;;;;;;;5014029;28;20053;-76
2022/02/22 02:10:00;;;;;;;8.40;2.58;;;;;;;;;;5013848;28;20026;-75
2022/02/22 02:12:27;;;;;;;9.38;2.03;;;;;;;;;;5013425;28;20033;-75
2022/02/22 02:14:53;;;;;;;11.52;3.22;;;;;;;;;;5013739;28;20389;-74
2022/02/22 02:17:19;;;;;;;8.27;2.45;;;;;;;;;;5012405;28;20474;-75
2022/02/22 02:19:44;;;;;;;8.73;2.63;;;;;;;;;;5013307;28;20026;-76
2022/02/22 02:22:11;;;;;;;9.68;2.70;;;;;;;;;;5013652;28;20036;-75
2022/02/22 02:24:37;;;;;;;10.20;2.90;;;;;;;;;;5013470;28;20044;-74
2022/02/22 02:27:03;;;;;;;8.98;2.38;;;;;;;;;;5013598;28;20084;-76
2022/02/22 02:29:29;;;;;;;9.10;2.33;;;;;;;;;;5012772;28;20022;-75
2022/02/22 02:31:55;;;;;;;9.38;3.00;;;;;;;;;;5013783;28;20437;-75
2022/02/22 02:34:23;;;;;;;9.07;2.17;;;;;;;;;;5012856;28;20092;-76
2022/02/22 02:36:49;;;;;;;7.65;2.70;;;;;;;;;;5013346;28;20473;-75
2022/02/22 02:39:15;;;;;;;10.32;2.75;;;;;;;;;;5013132;28;20490;-75
2022/02/22 02:41:42;;;;;;;11.13;2.60;;;;;;;;;;5013271;28;20148;-75
2022/02/22 02:44:10;;;;;;;8.93;2.65;;;;;;;;;;5013140;28;20033;-76
2022/02/22 02:46:36;;;;;;;11.02;2.72;;;;;;;;;;5013130;28;20034;-75
2022/02/22 02:49:03;;;;;;;9.02;2.70;;;;;;;;;;5011795;28;20381;-76
2022/02/22 02:51:29;;;;;;;8.35;2.28;;;;;;;;;;5013037;28;20030;-75
2022/02/22 02:53:55;;;;;;;10.68;2.65;;;;;;;;;;5012119;28;20030;-76
2022/02/22 02:56:24;;;;;;;7.55;2.55;;;;;;;;;;5013016;28;20474;-76
2022/02/22 02:58:54;;;;;;;9.23;2.67;;;;;;;;;;5011710;28;20026;-77
2022/02/22 03:01:20;;;;;;;8.18;2.60;;;;;;;;;;5012810;28;20037;-77
2022/02/22 03:03:47;;;;;;;7.60;2.08;;;;;;;;;;5012651;28;20440;-75
2022/02/22 03:06:12;;;;;;;8.57;2.97;;;;;;;;;;5011558;28;20385;-76
2022/02/22 03:08:39;;;;;;;12.20;3.17;;;;;;;;;;5011526;28;20021;-76
2022/02/22 03:11:05;;;;;;;5.50;2.33;;;;;;;;;;5012094;28;20536;-76
2022/02/22 03:13:31;;;;;;;11.80;2.75;;;;;;;;;;5012756;28;20033;-75
2022/02/22 03:15:57;;;;;;;9.38;3.22;;;;;;;;;;5010886;28;20034;-76
2022/02/22 03:18:23;;;;;;;9.65;2.35;;;;;;;;;;5011337;28;20033;-75
2022/02/22 03:20:49;;;;;;;8.48;2.20;;;;;;;;;;5012060;28;20034;-76
2022/02/22 03:23:16;;;;;;;8.77;2.92;;;;;;;;;;5011182;28;20147;-75
2022/02/22 03:25:42;;;;;;;8.05;3.08;;;;;;;;;;5012307;28;20029;-75
2022/02/22 03:28:08;;;;;;;12.73;2.95;;;;;;;;;;5012424;28;20480;-75
2022/02/22 03:30:35;;;;;;;8.93;2.80;;;;;;;;;;5012356;28;20026;-76
2022/02/22 03:33:01;;;;;;;10.88;2.95;;;;;;;;;;5012443;28;20030;-75
2022/02/22 03:35:28;;;;;;;6.85;2.40;;;;;;;;;;5011377;28;20382;-75
2022/02/22 03:37:54;;;;;;;7.53;2.22;;;;;;;;;;5011159;28;20483;-75
2022/02/22 03:40:20;;;;;;;8.30;2.63;;;;;;;;;;5010872;28;20030;-75
2022/02/22 03:42:46;;;;;;;8.88;3.17;;;;;;;;;;5010979;28;20064;-76
2022/02/22 03:45:13;;;;;;;9.20;2.80;;;;;;;;;;5012014;28;20112;-76
2022/02/22 03:47:40;;;;;;;8.32;2.60;;;;;;;;;;5010888;28;20044;-76
2022/02/22 03:50:06;;;;;;;9.73;2.95;;;;;;;;;;5012164;28;20026;-76
2022/02/22 03:52:33;;;;;;;8.38;2.08;;;;;;;;;;5012086;28;20058;-76
2022/02/22 03:54:59;;;;;;;8.38;2.40;;;;;;;;;;5012356;28;20018;-76
2022/02/22 03:57:25;;;;;;;6.72;2.30;;;;;;;;;;5011330;28;20385;-75
2022/02/22 03:59:51;;;;;;;7.57;2.60;;;;;;;;;;5011951;28;20445;-76
2022/02/22 04:02:17;;;;;;;11.45;3.20;;;;;;;;;;5011210;28;20506;-75
2022/02/22 04:04:43;;;;;;;13.30;3.42;;;;;;;;;;5011756;28;20065;-76
2022/02/22 04:07:09;;;;;;;8.35;2.65;;;;;;;;;;5011959;28;20093;-76
2022/02/22 04:09:35;;;;;;;7.93;3.00;;;;;;;;;;5009044;28;20121;-75
2022/02/22 04:12:01;;;;;;;9.20;2.15;;;;;;;;;;5010556;28;20022;-76
2022/02/22 04:14:27;;;;;;;8.25;2.40;;;;;;;;;;5010858;28;20040;-77
2022/02/22 04:16:53;;;;;;;7.35;2.22;;;;;;;;;;5015205;28;20436;-76
2022/02/22 04:19:19;;;;;;;11.75;3.22;;;;;;;;;;5015932;28;20030;-76
2022/02/22 04:21:45;;;;;;;6.80;2.47;;;;;;;;;;5015882;28;20076;-75
2022/02/22 04:24:11;;;;;;;7.60;2.45;;;;;;;;;;5015144;28;20026;-76
2022/02/22 04:26:37;;;;;;;11.32;2.80;;;;;;;;;;5014434;28;20456;-76
2022/02/22 04:29:03;;;;;;;9.25;2.92;;;;;;;;;;5015879;28;20057;-75
2022/02/22 04:31:33;;;;;;;6.40;2.05;;;;;;;;;;5014693;28;20049;-76
2022/02/22 04:33:59;;;;;;;11.65;2.38;;;;;;;;;;5016036;28;20075;-76
2022/02/22 04:36:25;;;;;;;7.57;2.40;;;;;;;;;;5015611;28;20432;-76
2022/02/22 04:38:51;;;;;;;8.27;2.80;;;;;;;;;;5015483;28;20124;-75
2022/02/22 04:41:17;;;;;;;9.75;3.33;;;;;;;;;;5014210;28;20026;-75
2022/02/22 04:43:43;;;;;;;8.82;2.08;;;;;;;;;;5013735;28;20121;-75
2022/02/22 04:46:09;;;;;;;9.82;2.53;;;;;;;;;;5014060;28;20464;-75
2022/02/22 04:48:35;;;;;;;8.98;2.88;;;;;;;;;;5015445;28;20029;-75
2022/02/22 04:51:01;;;;;;;8.13;2.53;;;;;;;;;;5015339;28;20030;-76
2022/02/22 04:53:27;;;;;;;10.63;3.05;;;;;;;;;;5014313;28;20026;-75
2022/02/22 04:55:53;;;;;;;9.02;3.13;;;;;;;;;;5015099;28;20087;-77
2022/02/22 04:58:19;;;;;;;8.02;2.50;;;;;;;;;;5015157;28;20030;-76
2022/02/22 05:00:46;;;;;;;8.05;2.90;;;;;;;;;;5015175;28;20481;-76
2022/02/22 05:03:13;;;;;;;8.20;2.88;;;;;;;;;;5013770;28;20038;-76
2022/02/22 05:05:39;;;;;;;9.20;2.50;;;;;;;;;;5015129;28;20386;-75
2022/02/22 05:08:05;;;;;;;10.43;3.53;;;;;;;;;;5014271;28;20052;-75
2022/02/22 05:10:31;;;;;;;8.90;2.45;;;;;;;;;;5013804;28;20476;-76
2022/02/22 05:12:57;;;;;;;9.82;2.78;;;;;;;;;;5014947;28;20105;-75
2022/02/22 05:15:23;;;;;;;10.52;2.25;;;;;;;;;;5013246;28;20613;-76
2022/02/22 05:17:49;;;;;;;10.27;2.83;;;;;;;;;;5013586;28;20478;-76
2022/02/22 05:20:16;;;;;;;9.40;2.78;;;;;;;;;;5014807;28;20060;-76
2022/02/22 05:22:42;;;;;;;8.82;2.67;;;;;;;;;;5014829;28;20029;-75
2022/02/22 05:25:09;;;;;;;10.98;3.13;;;;;;;;;;5013302;28;20138;-76
2022/02/22 05:27:35;;;;;;;9.82;2.72;;;;;;;;;;5014435;28;20026;-76
2022/02/22 05:30:01;;;;;;;11.02;2.95;;;;;;;;;;5014972;28;20029;-75
2022/02/22 05:32:27;;;;;;;8.40;2.70;;;;;;;;;;5014675;28;20481;-76
2022/02/22 05:34:53;;;;;;;6.82;2.70;;;;;;;;;;5013401;28;20026;-75
2022/02/22 05:37:19;;;;;;;7.18;2.60;;;;;;;;;;5014509;28;20405;-75
2022/02/22 05:39:45;;;;;;;11.25;3.20;;;;;;;;;;5014048;28;20060;-76
2022/02/22 05:42:11;;;;;;;7.97;2.72;;;;;;;;;;5013102;28;20030;-76
2022/02/22 05:44:37;;;;;;;7.25;2.22;;;;;;;;;;5014282;28;20046;-75
2022/02/22 05:47:04;;;;;;;11.55;3.40;;;;;;;;;;5014551;28;20026;-76
2022/02/22 05:49:30;;;;;;;12.07;3.10;;;;;;;;;;5013138;28;20053;-76
2022/02/22 05:51:56;;;;;;;8.50;2.78;;;;;;;;;;5014244;28;20086;-76
2022/02/22 05:54:22;;;;;;;8.82;2.70;;;;;;;;;;5014160;28;20537;-76
2022/02/22 05:56:48;;;;;;;9.50;2.58;;;;;;;;;;5014147;28;20052;-76
2022/02/22 05:59:14;;;;;;;7.82;2.10;;;;;;;;;;5014097;28;20029;-77
2022/02/22 06:01:43;;;;;;;12.93;3.20;;;;;;;;;;5011901;28;20481;-77
2022/02/22 06:04:09;;;;;;;10.07;2.60;;;;;;;;;;5013378;28;20421;-76
2022/02/22 06:06:35;;;;;;;6.50;2.33;;;;;;;;;;5014221;28;20057;-75
2022/02/22 06:09:01;;;;;;;8.18;2.78;;;;;;;;;;5013717;28;20026;-76
2022/02/22 06:11:27;;;;;;;8.00;2.50;;;;;;;;;;5013163;28;20033;-76
2022/02/22 06:13:53;;;;;;;13.63;3.85;;;;;;;;;;5013653;28;20093;-76
2022/02/22 06:16:19;;;;;;;6.72;2.33;;;;;;;;;;5013694;28;20053;-76
2022/02/22 06:18:45;;;;;;;8.10;2.35;;;;;;;;;;5013357;28;20065;-76
2022/02/22 06:21:11;;;;;;;9.80;2.83;;;;;;;;;;5011128;28;20505;-76
2022/02/22 06:23:37;;;;;;;10.18;2.90;;;;;;;;;;5012909;28;20041;-76
2022/02/22 06:26:03;;;;;;;6.85;2.45;;;;;;;;;;5013800;28;20386;-77
2022/02/22 06:28:29;;;;;;;9.43;2.53;;;;;;;;;;5012984;28;20033;-76
2022/02/22 06:30:55;;;;;;;8.52;2.72;;;;;;;;;;5012440;28;20053;-75
2022/02/22 06:33:21;;;;;;;11.13;2.70;;;;;;;;;;5012043;28;20479;-77
2022/02/22 06:35:47;;;;;;;8.60;2.83;;;;;;;;;;5013338;28;20076;-76
2022/02/22 06:38:13;;;;;;;8.95;2.80;;;;;;;;;;5012286;28;20034;-77
2022/02/22 06:40:39;;;;;;;9.23;2.45;;;;;;;;;;5011998;28;20025;-77
2022/02/22 06:43:06;;;;;;;8.60;2.53;;;;;;;;;;5012629;28;20076;-79
2022/02/22 06:45:32;;;;;;;11.13;2.65;;;;;;;;;;5011923;28;20034;-77
2022/02/22 06:47:58;;;;;;;9.93;2.85;;;;;;;;;;5011951;28;20046;-76
2022/02/22 06:50:24;;;;;;;10.80;2.78;;;;;;;;;;5010765;28;20055;-76
2022/02/22 06:52:52;;;;;;;9.07;2.35;;;;;;;;;;5011629;28;20018;-76
2022/02/22 06:55:18;;;;;;;10.00;3.47;;;;;;;;;;5013009;28;20497;-76
2022/02/22 06:57:49;;;;;;;9.88;2.33;;;;;;;;;;5011699;28;20029;-76
2022/02/22 07:00:15;;;;;;;10.15;2.55;;;;;;;;;;5011535;28;20030;-76
2022/02/22 07:02:42;;;;;;;10.80;3.10;;;;;;;;;;5012548;28;20061;-76
2022/02/22 07:05:09;;;;;;;12.27;2.97;;;;;;;;;;5011732;28;20057;-76
2022/02/22 07:07:35;;;;;;;8.15;2.85;;;;;;;;;;5011230;28;20025;-76
2022/02/22 07:10:01;;;;;;;14.25;4.60;;;;;;;;;;5012010;28;20073;-78
2022/02/22 07:12:27;;;;;;;10.15;3.05;;;;;;;;;;5011451;28;20140;-77
2022/02/22 07:14:53;;;;;;;11.07;3.40;;;;;;;;;;5011413;28;20053;-80
2022/02/22 07:17:21;;;;;;;9.50;2.35;;;;;;;;;;5012627;28;20026;-79
2022/02/22 07:19:47;;;;;;;12.77;3.42;;;;;;;;;;5012194;28;20026;-79
2022/02/22 07:22:13;;;;;;;11.25;2.90;;;;;;;;;;5012567;28;20025;-78
2022/02/22 07:24:39;;;;;;;11.40;3.40;;;;;;;;;;5012790;28;20153;-77
2022/02/22 07:27:05;;;;;;;13.25;2.90;;;;;;;;;;5012414;28;20045;-77
2022/02/22 07:29:32;;;;;;;13.52;3.90;;;;;;;;;;5012350;28;20113;-78
2022/02/22 07:31:58;;;;;;;14.15;3.60;;;;;;;;;;5012340;28;20389;-77
2022/02/22 07:34:24;;;;;;;10.95;3.25;;;;;;;;;;5010568;28;20413;-77
2022/02/22 07:36:50;;;;;;;8.98;3.22;;;;;;;;;;5010746;28;20026;-80
2022/02/22 07:39:16;;;;;;;14.38;3.92;;;;;;;;;;5006342;28;20527;-79
2022/02/22 07:41:42;;;;;;;11.82;3.45;;;;;;;;;;5008473;28;20022;-77
2022/02/22 07:44:08;;;;;;;11.43;3.17;;;;;;;;;;5010811;28;20139;-76
2022/02/22 07:46:34;;;;;;;14.25;3.38;;;;;;;;;;5012238;28;20044;-76
2022/02/22 07:49:00;;;;;;;19.20;4.45;;;;;;;;;;5011570;28;20037;-77
2022/02/22 07:51:27;;;;;;;15.50;3.67;;;;;;;;;;5011101;28;20030;-77
2022/02/22 07:53:53;;;;;;;16.20;4.10;;;;;;;;;;5011563;28;20021;-77
2022/02/22 07:56:19;;;;;;;14.27;4.60;;;;;;;;;;5011555;28;20034;-78
2022/02/22 07:58:45;;;;;;;13.18;6.35;;;;;;;;;;5007384;28;20022;-77
2022/02/22 08:01:11;;;;;;;16.48;7.63;;;;;;;;;;5011437;28;20486;-76
2022/02/22 08:03:37;;;;;;;22.67;8.52;;;;;;;;;;5011461;28;20033;-76
2022/02/22 08:06:03;;;;;;;16.40;8.25;;;;;;;;;;5009474;28;20112;-80
2022/02/22 08:08:29;;;;;;;20.15;9.30;;;;;;;;;;5008157;28;20117;-76
2022/02/22 08:10:55;;;;;;;21.60;9.20;;;;;;;;;;5006666;28;20117;-79
2022/02/22 08:13:21;;;;;;;18.08;7.88;;;;;;;;;;5008842;28;20049;-76
2022/02/22 08:15:47;;;;;;;19.50;7.93;;;;;;;;;;5010085;28;20032;-77
2022/02/22 08:18:13;;;;;;;24.02;8.20;;;;;;;;;;5008805;28;20022;-77
2022/02/22 08:20:42;;;;;;;22.38;8.52;;;;;;;;;;5010949;28;20030;-76
2022/02/22 08:23:09;;;;;;;20.10;7.68;;;;;;;;;;5011906;28;20029;-78
2022/02/22 08:25:35;;;;;;;18.48;8.02;;;;;;;;;;5011635;28;20100;-76
2022/02/22 08:28:07;;;;;;;18.50;7.68;;;;;;;;;;5012139;28;20084;-76
2022/02/22 08:30:34;;;;;;;15.93;6.68;;;;;;;;;;5010341;28;20110;-76
2022/02/22 08:33:00;;;;;;;20.98;6.78;;;;;;;;;;5011819;28;20033;-76
2022/02/22 08:35:26;;;;;;;16.70;7.18;;;;;;;;;;5010336;28;20467;-75
2022/02/22 08:37:54;;;;;;;19.75;8.07;;;;;;;;;;5010987;28;20030;-75
2022/02/22 08:40:20;;;;;;;20.02;7.75;;;;;;;;;;5010308;28;20022;-74
2022/02/22 08:42:46;;;;;;;19.63;6.47;;;;;;;;;;5010403;28;20539;-74
2022/02/22 08:45:12;;;;;;;25.63;7.07;;;;;;;;;;5010933;28;20033;-74
2022/02/22 08:47:38;;;;;;;20.90;7.75;;;;;;;;;;5011000;28;20033;-74
2022/02/22 08:50:04;;;;;;;19.02;7.07;;;;;;;;;;5009853;28;20088;-74
2022/02/22 08:52:31;;;;;;;22.63;6.80;;;;;;;;;;5010140;28;20108;-75
2022/02/22 08:54:57;;;;;;;21.13;6.97;;;;;;;;;;5010898;28;20018;-75
2022/02/22 08:57:23;;;;;;;23.25;6.75;;;;;;;;;;5011528;28;20036;-75
2022/02/22 08:59:49;;;;;;;17.98;6.30;;;;;;;;;;5010975;28;20022;-75
2022/02/22 09:02:15;;;;;;;15.27;6.10;;;;;;;;;;5013567;28;20034;-76
2022/02/22 09:04:41;;;;;;;23.63;6.88;;;;;;;;;;5015499;28;20116;-75
2022/02/22 09:07:07;;;;;;;19.00;6.45;;;;;;;;;;5012449;28;20053;-77
2022/02/22 09:09:33;;;;;;;21.75;6.30;;;;;;;;;;5015218;28;20037;-77
2022/02/22 09:12:01;;;;;;;17.10;5.75;;;;;;;;;;5014862;28;20446;-77
2022/02/22 09:14:27;;;;;;;18.55;5.40;;;;;;;;;;5013770;28;20022;-76
2022/02/22 09:16:53;;;;;;;16.98;6.18;;;;;;;;;;5013696;28;20029;-76
2022/02/22 09:19:19;;;;;;;21.63;6.60;;;;;;;;;;5013489;28;20033;-76
2022/02/22 09:21:45;;;;;;;16.60;5.97;;;;;;;;;;5012991;28;20489;-75
2022/02/22 09:24:11;;;;;;;18.45;5.55;;;;;;;;;;5013255;28;20033;-76
2022/02/22 09:26:37;;;;;;;19.45;7.70;;;;;;;;;;5013738;28;20037;-77
2022/02/22 09:29:03;;;;;;;16.63;5.30;;;;;;;;;;5012122;28;20037;-78
2022/02/22 09:31:29;;;;;;;20.13;5.38;;;;;;;;;;5012875;28;20390;-77
2022/02/22 09:33:55;;;;;;;17.17;5.38;;;;;;;;;;5013586;28;20026;-77
2022/02/22 09:36:21;;;;;;;16.88;5.90;;;;;;;;;;5013125;28;20034;-77
2022/02/22 09:38:48;;;;;;;18.13;6.05;;;;;;;;;;5013252;28;20057;-77
2022/02/22 09:41:14;;;;;;;14.52;4.53;;;;;;;;;;5012364;28;20044;-76
2022/02/22 09:43:40;;;;;;;19.35;6.00;;;;;;;;;;5014413;28;20018;-77
2022/02/22 09:46:09;;;;;;;19.20;5.97;;;;;;;;;;5013197;28;20126;-76
2022/02/22 09:48:35;;;;;;;20.27;6.22;;;;;;;;;;5014177;28;20026;-78
2022/02/22 09:51:02;;;;;;;19.02;5.93;;;;;;;;;;5012217;28;20034;-76
2022/02/22 09:53:28;;;;;;;16.50;5.82;;;;;;;;;;5012056;28;20080;-76
2022/02/22 09:55:55;;;;;;;17.58;6.00;;;;;;;;;;5012300;28;20065;-76
2022/02/22 09:58:22;;;;;;;20.35;5.85;;;;;;;;;;5011936;28;20034;-76
2022/02/22 10:00:57;;;;;;;22.02;5.38;;;;;;;;;;5012490;28;20489;-77
2022/02/22 10:03:23;;;;;;;;;;;;;;;;;;5012784;28;20029;-76
2022/02/22 10:05:53;;;;;;;19.80;5.50;;;;;;;;;;5012948;28;19921;-82
2022/02/22 10:08:24;;;;;;;18.48;5.97;;;;;;;;;;5010136;28;20038;-82
2022/02/22 10:10:59;;;;;;;15.20;5.07;;;;;;;;;;4993158;28;20030;-80
2022/02/22 10:13:25;;;;;;;18.95;5.18;;;;;;;;;;5008498;28;20030;-77
2022/02/22 10:15:51;;;;;;;16.17;5.78;;;;;;;;;;5011047;28;20018;-78
2022/02/22 10:18:17;;;;;;;15.93;5.70;;;;;;;;;;5013024;28;20021;-83
2022/02/22 10:20:47;;;;;;;18.50;6.10;;;;;;;;;;5014255;28;20022;-79
2022/02/22 10:23:13;;;;;;;16.90;5.25;;;;;;;;;;5013108;28;20033;-81
2022/02/22 10:25:39;;;;;;;17.15;5.00;;;;;;;;;;5013642;28;20045;-81
2022/02/22 10:28:06;;;;;;;17.42;5.18;;;;;;;;;;5012272;28;20055;-80
2022/02/22 10:30:41;;;;;;;19.35;5.22;;;;;;;;;;5013693;28;20033;-78
2022/02/22 10:33:07;;;;;;;;;;;;;;;;;;5014053;28;20037;-79
2022/02/22 10:35:34;;;;;;;13.25;4.05;;;;;;;;;;5012276;28;20273;-78
2022/02/22 10:38:11;;;;;;;14.18;4.60;;;;;;;;;;5012092;28;20571;-79
2022/02/22 10:40:40;;;;;;;13.93;4.75;;;;;;;;;;5012151;28;20036;-81
2022/02/22 10:43:06;;;;;;;18.70;5.00;;;;;;;;;;5011446;28;20029;-81
2022/02/22 10:45:32;;;;;;;14.73;4.30;;;;;;;;;;5012985;28;20452;-85
2022/02/22 10:47:58;;;;;;;16.98;5.20;;;;;;;;;;5011954;28;20076;-77
2022/02/22 10:50:26;;;;;;;18.42;3.72;;;;;;;;;;5012197;28;20125;-77
2022/02/22 10:52:53;;;;;;;17.77;4.43;;;;;;;;;;5013438;28;20022;-77
2022/02/22 10:55:19;;;;;;;15.23;5.05;;;;;;;;;;5009953;28;20080;-75
2022/02/22 10:57:48;;;;;;;11.23;3.58;;;;;;;;;;5010846;28;20440;-77
2022/02/22 11:00:15;;;;;;;13.30;4.20;;;;;;;;;;5010434;28;20104;-76
2022/02/22 11:02:43;;;;;;;12.93;3.75;;;;;;;;;;5011192;28;20033;-79
2022/02/22 11:05:10;;;;;;;13.60;4.25;;;;;;;;;;5011662;28;20057;-79
2022/02/22 11:07:36;;;;;;;12.32;4.63;;;;;;;;;;5012353;28;20556;-79
2022/02/22 11:10:03;;;;;;;9.65;3.65;;;;;;;;;;5011533;28;20025;-82
2022/02/22 11:12:32;;;;;;;11.48;4.05;;;;;;;;;;5017563;28;20477;-82
2022/02/22 11:15:09;;;;;;;12.27;4.05;;;;;;;;;;5029494;28;20405;-76
2022/02/22 11:17:45;;;;;;;14.93;3.95;;;;;;;;;;5031729;28;20096;-82
2022/02/22 11:20:28;;;;;;;13.95;4.38;;;;;;;;;;5031573;28;20030;-76
2022/02/22 11:22:55;;;;;;;11.57;3.53;;;;;;;;;;5012535;28;20076;-82
2022/02/22 11:25:27;;;;;;;10.10;3.15;;;;;;;;;;5012315;28;20038;-80
2022/02/22 11:27:59;;;;;;;11.25;3.45;;;;;;;;;;5009571;28;20064;-77
2022/02/22 11:30:29;;;;;;;12.63;3.55;;;;;;;;;;5009129;28;20080;-76
2022/02/22 11:33:15;;;;;;;11.27;3.38;;;;;;;;;;5010893;28;20453;-75
2022/02/22 11:35:46;;;;;;;13.00;3.38;;;;;;;;;;5010508;28;20263;-74
2022/02/22 11:38:13;;;;;;;9.23;3.13;;;;;;;;;;5011796;28;20060;-75
2022/02/22 11:40:39;;;;;;;9.57;3.05;;;;;;;;;;5011612;28;20113;-76
2022/02/22 11:43:08;;;;;;;9.57;3.10;;;;;;;;;;5013218;28;20030;-78
2022/02/22 11:45:34;;;;;;;10.85;2.95;;;;;;;;;;5012424;28;20052;-76
2022/02/22 11:48:24;;;;;;;10.18;3.08;;;;;;;;;;5022805;28;20018;-74
2022/02/22 11:50:57;;;;;;;26.52;2.95;;;;;;;;;;5003278;28;20592;-75
2022/02/22 11:53:24;;;;;;;13.05;3.28;;;;;;;;;;5011456;28;20026;-78
2022/02/22 11:55:51;;;;;;;9.98;2.85;;;;;;;;;;5011553;28;20172;-76
2022/02/22 11:58:22;;;;;;;8.38;2.83;;;;;;;;;;5010898;28;20034;-78
2022/02/22 12:00:50;;;;;;;10.02;3.10;;;;;;;;;;5013449;28;20026;-75
2022/02/22 12:03:18;;;;;;;10.63;2.28;;;;;;;;;;5011646;28;20026;-76
2022/02/22 12:05:50;;;;;;;9.45;2.78;;;;;;;;;;5010241;28;20029;-75
2022/02/22 12:08:18;;;;;;;7.07;2.67;;;;;;;;;;5010329;28;20072;-74
2022/02/22 12:10:48;;;;;;;5.05;1.55;;;;;;;;;;5010931;28;20033;-76
2022/02/22 12:13:15;;;;;;;8.23;2.35;;;;;;;;;;5010433;28;20021;-76
2022/02/22 12:15:42;;;;;;;10.13;1.77;;;;;;;;;;5008701;28;20072;-79
2022/02/22 12:18:14;;;;;;;6.07;2.05;;;;;;;;;;5009740;28;20033;-77
2022/02/22 12:20:40;;;;;;;6.85;2.25;;;;;;;;;;5009543;28;20037;-75
2022/02/22 12:23:06;;;;;;;6.57;2.20;;;;;;;;;;5014966;28;20026;-76
2022/02/22 12:25:33;;;;;;;6.45;2.10;;;;;;;;;;5009278;28;20061;-76
2022/02/22 12:28:03;;;;;;;7.85;2.70;;;;;;;;;;5009762;28;20490;-75
2022/02/22 12:30:31;;;;;;;9.43;1.95;;;;;;;;;;5010419;28;20076;-75
2022/02/22 12:32:57;;;;;;;7.25;2.58;;;;;;;;;;5008245;28;20501;-75
2022/02/22 12:35:34;;;;;;;5.57;1.58;;;;;;;;;;5008733;28;20025;-75
2022/02/22 12:38:00;;;;;;;7.35;2.38;;;;;;;;;;5008689;28;20037;-74
2022/02/22 12:40:30;;;;;;;5.13;1.50;;;;;;;;;;5013045;28;20038;-75
2022/02/22 12:43:10;;;;;;;6.63;1.85;;;;;;;;;;5013032;28;20092;-75
2022/02/22 12:45:40;;;;;;;7.07;2.20;;;;;;;;;;5011784;28;20044;-74
2022/02/22 12:48:07;;;;;;;5.80;1.77;;;;;;;;;;5014527;28;20029;-75
2022/02/22 12:50:33;;;;;;;5.20;1.30;;;;;;;;;;5015363;28;20033;-75
2022/02/22 12:52:59;;;;;;;5.88;1.60;;;;;;;;;;5027103;28;20030;-75
2022/02/22 12:55:25;;;;;;;4.40;1.73;;;;;;;;;;5016221;28;20026;-74
2022/02/22 12:57:52;;;;;;;4.30;1.40;;;;;;;;;;5014953;28;20158;-77
2022/02/22 13:00:18;;;;;;;3.97;1.83;;;;;;;;;;5014656;28;20026;-76
2022/02/22 13:02:45;;;;;;;9.57;2.47;;;;;;;;;;5028089;28;20104;-75
2022/02/22 13:05:11;;;;;;;5.35;2.15;;;;;;;;;;5033069;28;20090;-73
2022/02/22 13:07:38;;;;;;;6.43;1.52;;;;;;;;;;5030084;28;20077;-74
2022/02/22 13:10:07;;;;;;;7.65;2.17;;;;;;;;;;5014458;28;20536;-75
2022/02/22 13:12:34;;;;;;;5.57;1.98;;;;;;;;;;5014332;28;20022;-81
2022/02/22 13:15:00;;;;;;;7.35;2.20;;;;;;;;;;5014460;28;20022;-73
2022/02/22 13:17:28;;;;;;;2.83;1.13;;;;;;;;;;5015065;28;20026;-74
2022/02/22 13:19:54;;;;;;;8.10;2.25;;;;;;;;;;5013555;28;20057;-75
2022/02/22 13:22:26;;;;;;;7.90;2.58;;;;;;;;;;5013319;28;20026;-74
2022/02/22 13:24:59;;;;;;;5.03;1.80;;;;;;;;;;5014537;28;20042;-73
2022/02/22 13:27:26;;;;;;;7.40;1.85;;;;;;;;;;5012803;28;20057;-73
2022/02/22 13:29:59;;;;;;;5.50;1.70;;;;;;;;;;5014628;28;20049;-73
2022/02/22 13:32:29;;;;;;;7.05;2.00;;;;;;;;;;5012621;28;20014;-80
2022/02/22 13:34:55;;;;;;;5.72;2.15;;;;;;;;;;5014090;28;20493;-76
2022/02/22 13:37:22;;;;;;;6.20;1.83;;;;;;;;;;5014285;28;20097;-78
2022/02/22 13:39:48;;;;;;;7.07;1.85;;;;;;;;;;5014583;28;20037;-77
2022/02/22 13:42:18;;;;;;;5.82;1.85;;;;;;;;;;5014062;28;20509;-77
2022/02/22 13:44:44;;;;;;;5.40;2.10;;;;;;;;;;5013608;28;20064;-77
2022/02/22 13:47:11;;;;;;;7.45;2.55;;;;;;;;;;5013779;28;20026;-77
2022/02/22 13:49:42;;;;;;;6.15;2.15;;;;;;;;;;5012341;28;20121;-80
2022/02/22 13:52:08;;;;;;;5.10;1.63;;;;;;;;;;5012507;28;20033;-77
2022/02/22 13:54:35;;;;;;;6.82;2.20;;;;;;;;;;5013578;28;20425;-74
2022/02/22 13:57:03;;;;;;;7.72;2.55;;;;;;;;;;5013692;28;20486;-77
2022/02/22 13:59:33;;;;;;;7.07;2.33;;;;;;;;;;5013466;28;20080;-75
2022/02/22 14:02:00;;;;;;;7.55;1.92;;;;;;;;;;5013549;28;20481;-76
2022/02/22 14:04:28;;;;;;;9.02;2.35;;;;;;;;;;5013322;28;20030;-76
2022/02/22 14:06:55;;;;;;;7.07;2.35;;;;;;;;;;5013671;28;20029;-74
2022/02/22 14:09:21;;;;;;;8.55;2.00;;;;;;;;;;5013793;28;20022;-74
2022/02/22 14:11:49;;;;;;;8.05;2.20;;;;;;;;;;5013209;28;20026;-74
2022/02/22 14:14:15;;;;;;;6.95;2.13;;;;;;;;;;5013231;28;20033;-74
2022/02/22 14:16:43;;;;;;;8.15;2.30;;;;;;;;;;5014658;28;20107;-74
2022/02/22 14:19:10;;;;;;;6.85;2.05;;;;;;;;;;5012668;28;20555;-76
2022/02/22 14:21:36;;;;;;;6.75;1.67;;;;;;;;;;5013283;28;20056;-76
2022/02/22 14:24:02;;;;;;;8.30;2.03;;;;;;;;;;5031670;28;20022;-76
2022/02/22 14:26:28;;;;;;;7.80;1.85;;;;;;;;;;5032510;28;20042;-77
2022/02/22 14:28:54;;;;;;;8.52;2.55;;;;;;;;;;5018693;28;20028;-76
2022/02/22 14:31:20;;;;;;;11.10;2.83;;;;;;;;;;5012324;28;20030;-76
2022/02/22 14:33:47;;;;;;;7.93;2.17;;;;;;;;;;5012820;28;20022;-77
2022/02/22 14:36:13;;;;;;;9.55;2.85;;;;;;;;;;5013067;28;20505;-77